Time;durP1;ratioP1;P1;durP2;ratioP2;P2;SDS_P1;SDS_P2;PMS_P1;PMS_P2;Temp;Humidity;BMP_temperature;BMP_pressure;BME280_temperature;BME280_humidity;BME280_pressure;Samples;Min_cycle;Max_cycle;Signal;HPM_P1;HPM_P2
2022/03/07 00:02:10;;;;;;;16.83;12.33;;;2.80;47.10;;;3.21;42.08;98103.16;6235843;23;20034;-38
2022/03/07 00:04:38;;;;;;;18.13;12.03;;;2.80;47.10;;;3.21;42.17;98103.16;6235216;23;20019;-38
2022/03/07 00:07:07;;;;;;;12.97;9.57;;;2.80;47.10;;;3.22;42.06;98099.56;6234197;23;20433;-38
2022/03/07 00:09:36;;;;;;;12.00;9.77;;;2.80;47.00;;;3.23;42.20;98111.78;6235140;23;20031;-38
2022/03/07 00:12:04;;;;;;;12.90;10.70;;;2.80;47.00;;;3.20;42.45;98110.22;6235525;23;20016;-38
2022/03/07 00:14:32;;;;;;;15.40;10.73;;;2.80;47.10;;;3.15;42.42;98113.13;6234952;23;20036;-38
2022/03/07 00:17:01;;;;;;;15.67;10.40;;;2.80;47.40;;;3.12;42.51;98105.47;6234804;23;20012;-38
2022/03/07 00:19:29;;;;;;;16.63;9.23;;;2.70;47.50;;;3.11;42.34;98103.75;6233852;23;20018;-38
2022/03/07 00:21:57;;;;;;;11.73;8.23;;;2.70;47.50;;;3.10;42.53;98107.34;6234917;23;20179;-38
2022/03/07 00:24:24;;;;;;;11.87;8.93;;;2.60;47.90;;;3.05;42.97;98109.44;6235875;23;20047;-38
2022/03/07 00:26:52;;;;;;;11.53;8.67;;;2.60;48.40;;;3.03;42.87;98110.50;6236063;23;20398;-38
2022/03/07 00:29:20;;;;;;;12.07;8.67;;;2.50;48.40;;;3.03;42.96;98107.88;6231369;23;20024;-38
2022/03/07 00:31:49;;;;;;;11.63;9.20;;;2.50;48.30;;;3.00;43.08;98110.69;6206362;23;20024;-38
2022/03/07 00:34:17;;;;;;;12.07;8.87;;;2.60;48.70;;;3.00;42.98;98110.69;6234956;23;20020;-38
2022/03/07 00:36:45;;;;;;;11.70;8.10;;;2.50;48.60;;;3.01;43.22;98115.03;6207072;23;20024;-38
2022/03/07 00:39:13;;;;;;;11.57;9.33;;;2.50;48.90;;;3.00;43.19;98115.94;6184477;23;20016;-38
2022/03/07 00:41:42;;;;;;;12.17;9.37;;;2.50;48.80;;;3.01;43.33;98115.84;6235774;23;20020;-38
2022/03/07 00:44:10;;;;;;;10.70;8.53;;;2.50;48.90;;;3.00;43.70;98122.03;6232105;23;20028;-38
2022/03/07 00:46:38;;;;;;;11.83;8.93;;;2.50;49.40;;;2.95;43.46;98121.53;6234974;23;20024;-38
2022/03/07 00:49:06;;;;;;;12.33;9.33;;;2.50;49.10;;;2.91;43.66;98115.63;6206211;23;20091;-38
2022/03/07 00:51:34;;;;;;;9.87;7.63;;;2.40;49.50;;;2.89;43.61;98109.63;6208264;23;20020;-38
2022/03/07 00:54:03;;;;;;;13.80;9.67;;;2.40;49.40;;;2.91;43.37;98112.16;6206860;23;20237;-38
2022/03/07 00:56:30;;;;;;;13.90;10.53;;;2.40;49.00;;;2.93;43.89;98115.53;6235104;23;20020;-38
2022/03/07 00:58:59;;;;;;;14.33;9.23;;;2.50;49.30;;;2.93;43.74;98116.38;6206461;23;20039;-38
2022/03/07 01:01:27;;;;;;;10.83;9.10;;;2.50;49.30;;;2.92;43.74;98117.28;6233675;23;20027;-38
2022/03/07 01:03:55;;;;;;;12.80;9.53;;;2.50;49.20;;;2.93;43.69;98115.53;6235245;23;20024;-38
2022/03/07 01:06:23;;;;;;;12.20;8.40;;;2.50;49.10;;;2.92;43.32;98117.28;6236549;23;20024;-38
2022/03/07 01:08:51;;;;;;;10.50;8.57;;;2.40;49.30;;;2.92;43.85;98111.19;6233834;23;20027;-38
2022/03/07 01:11:19;;;;;;;14.10;9.07;;;2.40;49.10;;;2.92;43.32;98111.19;6235916;23;20257;-38
2022/03/07 01:13:47;;;;;;;10.33;7.17;;;2.40;48.70;;;2.93;43.35;98120.78;6235357;23;20066;-38
2022/03/07 01:16:17;;;;;;;11.73;6.97;;;2.50;48.50;;;2.94;42.90;98119.81;6247659;23;20026;-38
2022/03/07 01:18:45;;;;;;;9.53;7.33;;;2.50;48.00;;;2.94;42.89;98111.94;6208589;23;20016;-38
2022/03/07 01:21:13;;;;;;;12.60;7.43;;;2.50;47.70;;;2.92;43.10;98121.72;6236306;23;20344;-38
2022/03/07 01:23:42;;;;;;;10.50;6.97;;;2.40;47.50;;;2.89;42.71;98111.38;6210383;23;20046;-38
2022/03/07 01:26:10;;;;;;;11.63;7.00;;;2.40;47.70;;;2.86;42.91;98114.25;6208550;23;20028;-38
2022/03/07 01:28:38;;;;;;;11.13;6.87;;;2.30;47.50;;;2.82;42.85;98104.88;6234741;23;20027;-38
2022/03/07 01:31:08;;;;;;;11.07;6.83;;;2.30;47.10;;;2.78;42.82;98119.16;6232365;23;20047;-38
2022/03/07 01:33:36;;;;;;;8.73;6.70;;;2.30;47.50;;;2.76;42.72;98114.00;6236829;23;20020;-38
2022/03/07 01:36:04;;;;;;;10.93;7.53;;;2.20;47.50;;;2.72;42.93;98107.25;6236465;23;20317;-38
2022/03/07 01:38:32;;;;;;;12.27;7.80;;;2.20;47.60;;;2.69;42.55;98113.53;6233330;23;20302;-38
2022/03/07 01:41:01;;;;;;;9.60;7.17;;;2.20;47.70;;;2.71;42.79;98100.31;6210729;23;20337;-38
2022/03/07 01:43:30;;;;;;;8.33;6.80;;;2.20;47.60;;;2.69;42.40;98110.91;6236073;23;20103;-38
2022/03/07 01:45:58;;;;;;;9.03;6.83;;;2.20;47.30;;;2.69;42.54;98112.72;6208165;23;20221;-38
2022/03/07 01:48:27;;;;;;;9.00;7.20;;;2.20;47.50;;;2.65;42.77;98105.97;6207317;23;20042;-38
2022/03/07 01:50:55;;;;;;;10.83;7.30;;;2.20;47.20;;;2.63;43.06;98105.22;6233698;23;20028;-38
2022/03/07 01:53:24;;;;;;;12.57;7.37;;;2.10;47.60;;;2.61;42.71;98100.06;6235021;23;20028;-38
2022/03/07 01:55:56;;;;;;;10.03;6.53;;;2.10;47.10;;;2.61;42.70;98097.44;6236716;23;20016;-38
2022/03/07 01:58:24;;;;;;;9.67;6.70;;;2.10;47.10;;;2.58;42.98;98091.53;6208781;23;20252;-38
2022/03/07 02:00:51;;;;;;;9.47;6.33;;;2.10;47.40;;;2.53;42.50;98092.69;6207933;23;20213;-38
2022/03/07 02:03:21;;;;;;;8.70;6.77;;;2.00;47.40;;;2.51;42.90;98088.47;6208033;23;20613;-38
2022/03/07 02:05:49;;;;;;;9.60;6.27;;;2.00;47.30;;;2.47;42.57;98089.63;6233393;23;20034;-38
2022/03/07 02:08:21;;;;;;;10.67;7.10;;;1.90;47.00;;;2.42;42.34;98089.91;6232613;23;20114;-38
2022/03/07 02:10:54;;;;;;;10.10;7.20;;;1.90;47.50;;;2.35;42.80;98086.84;6232236;23;20034;-38
2022/03/07 02:13:22;;;;;;;9.20;7.20;;;1.80;47.20;;;2.33;42.52;98090.50;6235145;23;20027;-38
2022/03/07 02:15:58;;;;;;;8.07;6.03;;;1.80;47.30;;;2.25;42.56;98080.50;6233355;23;20024;-38
2022/03/07 02:18:32;;;;;;;;;;;1.70;47.70;;;2.18;42.90;98073.94;6233217;23;20030;-38
2022/03/07 02:21:14;;;;;;;7.70;6.00;;;1.60;48.60;;;2.14;42.99;98072.47;6207837;23;19919;-38
2022/03/07 02:23:52;;;;;;;9.50;6.30;;;1.50;48.10;;;2.10;42.89;98079.69;6247395;23;20615;-38
2022/03/07 02:26:20;;;;;;;9.37;6.27;;;1.50;48.40;;;2.07;42.57;98076.41;6207674;23;20016;-38
2022/03/07 02:28:51;;;;;;;8.30;6.37;;;1.40;48.00;;;2.06;42.78;98072.94;6232638;23;20016;-38
2022/03/07 02:31:24;;;;;;;9.13;6.17;;;1.50;48.20;;;2.03;42.95;98072.28;6234308;23;20213;-38
2022/03/07 02:33:53;;;;;;;7.77;5.90;;;1.50;48.00;;;1.98;42.76;98067.34;6232785;23;20016;-38
2022/03/07 02:36:22;;;;;;;7.73;6.03;;;1.40;47.80;;;1.94;42.92;98057.97;6208569;23;20313;-38
2022/03/07 02:38:51;;;;;;;8.03;5.93;;;1.30;47.70;;;1.91;42.25;98064.25;6208364;23;20023;-38
2022/03/07 02:41:20;;;;;;;9.90;6.03;;;1.30;47.70;;;1.89;42.48;98065.28;6207097;23;20031;-38
2022/03/07 02:43:50;;;;;;;9.10;7.03;;;1.30;47.60;;;1.85;43.15;98069.88;6232637;23;20122;-38
2022/03/07 02:46:18;;;;;;;10.53;7.27;;;1.30;47.80;;;1.81;42.51;98063.16;6234789;23;20035;-38
2022/03/07 02:48:49;;;;;;;11.67;9.27;;;1.20;47.50;;;1.77;42.53;98067.75;6232425;23;20020;-38
2022/03/07 02:51:17;;;;;;;11.83;9.83;;;1.20;47.70;;;1.75;43.12;98059.13;6210285;23;20042;-38
2022/03/07 02:53:45;;;;;;;14.37;11.00;;;1.20;47.80;;;1.75;42.69;98063.53;6235850;23;20020;-38
2022/03/07 02:56:13;;;;;;;11.80;9.90;;;1.10;47.60;;;1.71;42.34;98067.28;6234349;23;20024;-38
2022/03/07 02:58:41;;;;;;;12.97;8.27;;;1.10;47.50;;;1.68;42.31;98059.59;6234224;23;20020;-38
2022/03/07 03:01:09;;;;;;;10.57;8.07;;;1.10;47.70;;;1.64;42.29;98066.81;6234988;23;20027;-38
2022/03/07 03:03:37;;;;;;;10.63;8.50;;;1.00;47.90;;;1.60;43.00;98061.84;6235247;23;20034;-38
2022/03/07 03:06:05;;;;;;;9.40;7.80;;;1.00;47.70;;;1.56;42.84;98067.28;6236808;23;20016;-38
2022/03/07 03:08:33;;;;;;;10.03;7.80;;;1.00;47.70;;;1.51;42.40;98068.50;6235250;23;20020;-38
2022/03/07 03:11:02;;;;;;;8.70;6.87;;;0.90;48.20;;;1.42;42.68;98072.53;6235701;23;20028;-38
2022/03/07 03:13:30;;;;;;;12.17;6.90;;;0.70;48.20;;;1.33;43.05;98068.69;6235411;23;20026;-38
2022/03/07 03:15:58;;;;;;;8.83;6.47;;;0.70;48.40;;;1.27;42.73;98066.44;6235386;23;20020;-38
2022/03/07 03:18:25;;;;;;;8.87;6.70;;;0.60;48.60;;;1.23;43.50;98067.56;6234542;23;20020;-38
2022/03/07 03:20:54;;;;;;;9.70;6.77;;;0.60;48.50;;;1.18;42.96;98073.09;6234945;23;20035;-38
2022/03/07 03:23:24;;;;;;;9.83;6.33;;;0.60;48.60;;;1.13;42.95;98069.91;6234935;23;20171;-38
2022/03/07 03:25:55;;;;;;;10.17;6.90;;;0.50;48.70;;;1.11;43.60;98070.94;6244484;23;20020;-38
2022/03/07 03:28:23;;;;;;;10.57;7.37;;;0.50;48.90;;;1.10;43.05;98069.22;6234025;23;20368;-38
2022/03/07 03:30:53;;;;;;;13.07;9.30;;;0.50;48.80;;;1.05;43.15;98071.28;6235251;23;20024;-38
2022/03/07 03:33:21;;;;;;;10.77;8.60;;;0.50;48.80;;;1.02;43.76;98082.81;6234373;23;20024;-38
2022/03/07 03:35:49;;;;;;;10.80;8.47;;;0.40;48.90;;;1.01;43.14;98081.13;6235568;23;20012;-38
2022/03/07 03:38:17;;;;;;;10.77;7.30;;;0.40;49.20;;;1.02;43.54;98087.22;6234922;23;20034;-38
2022/03/07 03:40:45;;;;;;;10.90;7.37;;;0.40;49.50;;;0.97;44.11;98087.50;6235362;23;20020;-38
2022/03/07 03:43:12;;;;;;;9.23;6.23;;;0.30;49.90;;;0.94;43.42;98085.88;6235105;23;20016;-38
2022/03/07 03:45:40;;;;;;;10.90;6.70;;;0.30;50.20;;;0.90;44.25;98084.38;6235152;23;20022;-38
2022/03/07 03:48:08;;;;;;;10.43;7.00;;;0.20;50.30;;;0.83;44.35;98090.91;6235619;23;20030;-38
2022/03/07 03:50:36;;;;;;;8.80;6.57;;;0.10;50.10;;;0.76;44.46;98090.44;6235483;23;20306;-38
2022/03/07 03:53:04;;;;;;;8.83;6.47;;;0.10;50.20;;;0.74;43.65;98088.84;6235702;23;20030;-38
2022/03/07 03:55:31;;;;;;;12.97;9.00;;;0.10;51.00;;;0.74;43.85;98094.91;6235301;23;20019;-38
2022/03/07 03:57:59;;;;;;;9.77;7.97;;;0.10;49.80;;;0.74;43.52;98089.66;6234414;23;20023;-38
2022/03/07 04:00:28;;;;;;;10.57;7.43;;;0.20;49.30;;;0.72;43.44;98096.78;6234044;23;20204;-38
2022/03/07 04:02:56;;;;;;;12.33;7.60;;;0.10;49.10;;;0.67;43.27;98092.72;6234114;23;20024;-38
2022/03/07 04:05:24;;;;;;;10.27;8.13;;;0.10;49.10;;;0.64;43.48;98091.16;6233481;23;20024;-38
2022/03/07 04:07:52;;;;;;;13.17;9.07;;;0.10;48.50;;;0.66;43.11;98094.53;6207977;23;20022;-38
2022/03/07 04:10:20;;;;;;;12.20;8.03;;;0.10;48.50;;;0.69;43.51;98085.63;6234945;23;20046;-38
2022/03/07 04:12:48;;;;;;;10.70;6.97;;;0.20;48.20;;;0.72;43.31;98088.09;6235185;23;20034;-38
2022/03/07 04:15:16;;;;;;;11.70;8.43;;;0.20;47.90;;;0.75;43.50;98088.72;6234118;23;20024;-38
2022/03/07 04:17:44;;;;;;;13.27;7.80;;;0.20;48.00;;;0.73;43.78;98084.50;6235385;23;20035;-38
2022/03/07 04:20:13;;;;;;;12.17;7.50;;;0.20;48.10;;;0.74;43.75;98087.06;6234078;23;20322;-38
2022/03/07 04:22:41;;;;;;;12.57;8.40;;;0.20;48.40;;;0.73;43.50;98087.97;6235879;23;20027;-38
2022/03/07 04:25:10;;;;;;;11.60;7.77;;;0.20;49.00;;;0.71;44.01;98087.22;6234281;23;20185;-38
2022/03/07 04:27:38;;;;;;;11.13;8.27;;;0.20;49.00;;;0.72;44.22;98090.69;6207518;23;20022;-38
2022/03/07 04:30:08;;;;;;;10.03;6.77;;;0.20;49.50;;;0.73;44.26;98095.00;6233902;23;20020;-38
2022/03/07 04:32:37;;;;;;;12.83;7.83;;;0.20;49.60;;;0.70;44.05;98092.53;6235707;23;20016;-38
2022/03/07 04:35:08;;;;;;;10.77;7.37;;;0.20;50.00;;;0.72;43.86;98088.91;6234364;23;20020;-38
2022/03/07 04:37:40;;;;;;;13.73;7.53;;;0.20;50.20;;;0.71;44.32;98091.63;6244846;23;20020;-38
2022/03/07 04:40:13;;;;;;;14.73;7.47;;;0.20;50.30;;;0.71;44.75;98095.06;6245883;23;20013;-38
2022/03/07 04:42:42;;;;;;;10.70;7.00;;;0.20;50.80;;;0.73;44.25;98100.25;6236364;23;20016;-38
2022/03/07 04:45:12;;;;;;;14.03;8.37;;;0.20;51.10;;;0.75;44.54;98106.22;6236352;23;20016;-38
2022/03/07 04:47:43;;;;;;;14.10;7.97;;;0.20;51.30;;;0.72;45.18;98107.25;6237361;23;20023;-38
2022/03/07 04:50:13;;;;;;;16.40;9.87;;;0.20;51.50;;;0.70;45.57;98095.16;6235055;23;20023;-38
2022/03/07 04:52:42;;;;;;;15.63;9.40;;;0.20;51.80;;;0.70;44.70;98105.66;6211192;23;20038;-37
2022/03/07 04:55:12;;;;;;;13.33;8.30;;;0.20;52.20;;;0.74;45.61;98107.19;6209617;23;20012;-38
2022/03/07 04:57:43;;;;;;;14.13;8.73;;;0.20;51.90;;;0.72;45.41;98107.25;6237769;23;20285;-38
2022/03/07 05:00:13;;;;;;;12.00;7.57;;;0.30;52.10;;;0.73;45.80;98108.94;6246262;23;20012;-38
2022/03/07 05:02:42;;;;;;;15.73;9.27;;;0.20;52.00;;;0.73;45.04;98121.22;6211196;23;20042;-37
2022/03/07 05:05:10;;;;;;;12.20;8.27;;;0.20;52.20;;;0.67;46.10;98113.69;6234769;23;20034;-38
2022/03/07 05:07:38;;;;;;;12.43;6.97;;;0.20;52.60;;;0.66;45.53;98110.25;6237267;23;20024;-38
2022/03/07 05:10:06;;;;;;;11.33;6.30;;;0.20;52.60;;;0.68;46.21;98112.75;6233158;23;20027;-38
2022/03/07 05:12:34;;;;;;;13.80;8.37;;;0.20;52.80;;;0.71;46.06;98115.22;6208869;23;20028;-38
2022/03/07 05:15:04;;;;;;;10.63;6.87;;;0.20;53.10;;;0.67;45.52;98111.91;6237228;23;20012;-38
2022/03/07 05:17:39;;;;;;;12.57;7.97;;;0.20;52.90;;;0.66;45.51;98123.34;6235370;23;20024;-38
2022/03/07 05:20:08;;;;;;;12.37;8.27;;;0.10;53.20;;;0.66;45.54;98115.47;6246664;23;20020;-38
2022/03/07 05:22:36;;;;;;;13.70;8.67;;;0.10;53.50;;;0.67;45.56;98116.31;6237252;23;20012;-38
2022/03/07 05:25:05;;;;;;;17.23;9.77;;;0.10;53.30;;;0.64;46.09;98119.97;6236201;23;20069;-38
2022/03/07 05:27:33;;;;;;;14.73;9.50;;;0.10;54.20;;;0.66;46.39;98127.72;6235227;23;20016;-38
2022/03/07 05:30:04;;;;;;;10.90;7.40;;;0.10;53.70;;;0.63;45.63;98128.75;6234171;23;20342;-38
2022/03/07 05:32:32;;;;;;;11.03;6.77;;;0.00;53.20;;;0.58;46.07;98128.16;6236071;23;20023;-38
2022/03/07 05:35:00;;;;;;;11.50;7.57;;;0.10;53.10;;;0.54;46.03;98126.66;6235432;23;20020;-38
2022/03/07 05:37:28;;;;;;;17.13;7.70;;;0.00;53.70;;;0.53;46.57;98131.03;6234653;23;20253;-38
2022/03/07 05:39:56;;;;;;;21.20;8.67;;;0.00;53.40;;;0.52;46.52;98131.97;6235876;23;20026;-38
2022/03/07 05:42:23;;;;;;;14.20;9.17;;;0.00;53.50;;;0.48;46.19;98133.06;6237507;23;20074;-38
2022/03/07 05:44:52;;;;;;;11.10;7.17;;;-0.10;53.70;;;0.46;46.23;98131.47;6237060;23;20213;-38
2022/03/07 05:47:20;;;;;;;9.53;7.03;;;-0.10;53.70;;;0.44;46.71;98133.34;6235366;23;20019;-38
2022/03/07 05:49:48;;;;;;;11.63;7.73;;;-0.10;53.80;;;0.45;46.14;98138.50;6234861;23;20030;-38
2022/03/07 05:52:15;;;;;;;9.97;6.73;;;-0.10;53.80;;;0.43;46.52;98136.88;6236350;23;20028;-38
2022/03/07 05:54:44;;;;;;;13.10;7.53;;;-0.20;54.20;;;0.37;46.28;98138.09;6235921;23;20038;-38
2022/03/07 05:57:11;;;;;;;11.07;7.37;;;-0.20;54.40;;;0.32;46.94;98137.50;6236243;23;20020;-38
2022/03/07 05:59:39;;;;;;;11.77;6.90;;;-0.20;54.70;;;0.29;47.00;98137.66;6235475;23;20020;-38
2022/03/07 06:02:08;;;;;;;14.40;6.37;;;-0.30;54.90;;;0.24;46.99;98139.69;6236602;23;20322;-38
2022/03/07 06:04:36;;;;;;;12.57;7.07;;;-0.30;55.80;;;0.22;47.37;98144.19;6209041;23;20012;-38
2022/03/07 06:07:04;;;;;;;9.03;6.03;;;-0.40;55.10;;;0.19;47.08;98142.56;6235321;23;20012;-38
2022/03/07 06:09:31;;;;;;;12.93;6.37;;;-0.40;55.30;;;0.18;47.39;98157.44;6234665;23;20020;-38
2022/03/07 06:11:59;;;;;;;8.17;6.00;;;-0.40;54.70;;;0.19;47.32;98161.75;6236149;23;20026;-38
2022/03/07 06:14:27;;;;;;;11.80;6.93;;;-0.30;55.50;;;0.15;47.14;98152.34;6236675;23;20020;-38
2022/03/07 06:16:55;;;;;;;12.00;7.23;;;-0.40;55.40;;;0.15;47.37;98148.88;6235972;23;20020;-38
2022/03/07 06:19:23;;;;;;;11.80;6.20;;;-0.40;55.40;;;0.14;47.70;98145.44;6235643;23;20026;-38
2022/03/07 06:21:51;;;;;;;10.17;5.57;;;-0.40;55.30;;;0.14;47.82;98155.06;6235572;23;20186;-38
2022/03/07 06:24:18;;;;;;;10.77;5.63;;;-0.40;55.80;;;0.11;47.64;98147.38;6235973;23;20020;-38
2022/03/07 06:26:46;;;;;;;11.00;5.80;;;-0.40;55.90;;;0.12;47.31;98147.28;6209992;23;20396;-38
2022/03/07 06:29:14;;;;;;;9.10;6.00;;;-0.40;55.50;;;0.15;47.25;98144.50;6235945;23;20016;-38
2022/03/07 06:31:42;;;;;;;11.40;6.70;;;-0.40;55.10;;;0.17;47.64;98140.00;6235819;23;20020;-39
2022/03/07 06:34:10;;;;;;;11.10;5.93;;;-0.30;55.20;;;0.21;47.08;98143.31;6236528;23;20023;-39
2022/03/07 06:36:39;;;;;;;9.60;5.90;;;-0.30;55.10;;;0.23;47.05;98145.84;6235932;23;20020;-39
2022/03/07 06:39:07;;;;;;;8.67;5.53;;;-0.20;54.80;;;0.24;47.73;98145.78;6235976;23;20023;-39
2022/03/07 06:41:35;;;;;;;7.97;5.23;;;-0.20;54.80;;;0.24;47.68;98150.16;6235520;23;20075;-39
2022/03/07 06:44:03;;;;;;;8.70;5.23;;;-0.20;54.70;;;0.22;47.73;98152.03;6234488;23;20024;-39
2022/03/07 06:46:31;;;;;;;9.90;5.27;;;-0.20;55.00;;;0.23;47.07;98151.09;6235960;23;20016;-39
2022/03/07 06:48:59;;;;;;;7.40;5.23;;;-0.30;55.20;;;0.25;47.33;98154.47;6234470;23;20028;-39
2022/03/07 06:51:27;;;;;;;7.57;5.27;;;-0.20;54.90;;;0.25;48.01;98157.09;6234607;23;20027;-39
2022/03/07 06:53:54;;;;;;;10.57;5.10;;;-0.20;55.20;;;0.24;47.63;98158.03;6235999;23;20022;-39
2022/03/07 06:56:22;;;;;;;8.13;5.00;;;-0.20;56.00;;;0.29;47.10;98150.75;6234677;23;20018;-39
2022/03/07 06:58:50;;;;;;;7.30;4.87;;;-0.20;55.00;;;0.29;48.20;98153.38;6236568;23;20016;-39
2022/03/07 07:01:18;;;;;;;8.37;5.30;;;-0.20;54.70;;;0.29;47.07;98156.84;6235692;23;20012;-39
2022/03/07 07:03:46;;;;;;;7.23;4.60;;;-0.20;54.40;;;0.32;47.20;98161.06;6234384;23;20020;-39
2022/03/07 07:06:15;;;;;;;10.70;5.73;;;-0.10;54.50;;;0.34;47.01;98164.44;6234817;23;20386;-38
2022/03/07 07:08:42;;;;;;;8.30;5.30;;;-0.10;54.20;;;0.36;47.75;98170.44;6235166;23;20024;-38
2022/03/07 07:11:10;;;;;;;7.07;5.47;;;-0.10;54.40;;;0.38;47.53;98171.19;6235668;23;20016;-38
2022/03/07 07:13:40;;;;;;;10.83;5.40;;;0.00;54.60;;;0.41;47.55;98164.94;6234748;23;20179;-38
2022/03/07 07:16:09;;;;;;;9.23;5.40;;;0.00;54.40;;;0.42;47.32;98166.63;6246005;23;20528;-38
2022/03/07 07:18:37;;;;;;;9.00;5.20;;;0.00;54.20;;;0.44;47.01;98180.50;6235561;23;20020;-39
2022/03/07 07:21:05;;;;;;;7.97;4.53;;;0.00;54.10;;;0.43;47.97;98181.41;6206639;23;20024;-39
2022/03/07 07:23:34;;;;;;;8.53;5.17;;;0.00;53.90;;;0.43;47.40;98184.91;6236089;23;20171;-38
2022/03/07 07:26:03;;;;;;;7.40;4.67;;;0.00;53.90;;;0.46;47.96;98186.50;6234338;23;20024;-39
2022/03/07 07:28:31;;;;;;;6.93;4.67;;;0.10;54.10;;;0.40;47.92;98182.44;6236304;23;20030;-39
2022/03/07 07:30:58;;;;;;;9.33;5.67;;;0.10;53.60;;;0.40;48.09;98190.28;6236149;23;20581;-39
2022/03/07 07:33:26;;;;;;;8.87;5.80;;;0.10;53.50;;;0.41;47.84;98191.13;6238031;23;20016;-38
2022/03/07 07:36:44;;;;;;;13.67;5.73;;;0.20;53.50;;;0.34;48.71;98194.09;6235074;23;20016;-38
2022/03/07 07:39:12;;;;;;;9.50;6.27;;;0.20;53.40;;;0.31;47.48;98182.94;6234249;23;20060;-38
2022/03/07 07:41:40;;;;;;;9.03;5.30;;;0.20;52.90;;;0.37;47.51;98191.31;6235849;23;20028;-40
2022/03/07 07:44:08;;;;;;;8.17;5.13;;;0.20;53.70;;;0.40;47.64;98192.91;6233920;23;20373;-38
2022/03/07 07:46:36;;;;;;;10.13;6.63;;;0.20;53.10;;;0.45;47.67;98185.66;6236001;23;20222;-39
2022/03/07 07:49:05;;;;;;;10.63;6.33;;;0.20;53.20;;;0.52;47.99;98189.59;6234737;23;20012;-38
2022/03/07 07:51:33;;;;;;;9.80;5.47;;;0.20;53.10;;;0.58;47.31;98186.66;6233101;23;20024;-39
2022/03/07 07:54:01;;;;;;;9.87;5.97;;;0.30;53.10;;;0.59;47.90;98188.34;6234424;23;20024;-38
2022/03/07 07:56:29;;;;;;;10.07;6.20;;;0.40;52.70;;;0.62;47.23;98196.97;6235108;23;20018;-39
2022/03/07 07:58:57;;;;;;;9.43;5.83;;;0.40;52.70;;;0.66;47.19;98196.72;6234809;23;20020;-38
2022/03/07 08:01:25;;;;;;;9.97;6.03;;;0.40;52.80;;;0.72;47.23;98209.47;6235746;23;20018;-39
2022/03/07 08:03:53;;;;;;;7.73;6.20;;;0.40;52.80;;;0.77;47.64;98212.66;6233130;23;20348;-39
2022/03/07 08:06:22;;;;;;;18.47;9.07;;;0.50;52.80;;;0.84;47.49;98214.97;6234550;23;20027;-39
2022/03/07 08:08:49;;;;;;;10.93;6.60;;;0.50;52.70;;;0.89;47.50;98211.16;6235498;23;20016;-39
2022/03/07 08:11:18;;;;;;;11.93;7.67;;;0.60;52.40;;;0.95;47.23;98212.56;6234638;23;20209;-39
2022/03/07 08:13:46;;;;;;;10.40;7.03;;;0.60;52.50;;;1.00;47.03;98217.56;6233960;23;20039;-39
2022/03/07 08:16:14;;;;;;;11.37;6.80;;;0.70;52.30;;;1.04;47.09;98213.81;6233967;23;20187;-39
2022/03/07 08:18:42;;;;;;;10.43;7.07;;;0.70;52.80;;;1.07;47.16;98219.75;6234813;23;20336;-39
2022/03/07 08:21:09;;;;;;;11.50;7.23;;;0.70;51.80;;;1.12;47.35;98224.72;6234538;23;20022;-39
2022/03/07 08:23:37;;;;;;;13.37;7.17;;;0.80;51.60;;;1.11;47.31;98226.50;6235001;23;20030;-39
2022/03/07 08:26:07;;;;;;;10.27;6.70;;;0.80;51.40;;;1.06;47.01;98225.91;6233708;23;20020;-39
2022/03/07 08:28:35;;;;;;;13.83;7.83;;;0.80;51.00;;;1.13;46.52;98224.63;6238671;23;20214;-39
2022/03/07 08:31:03;;;;;;;13.30;7.43;;;0.90;51.10;;;1.19;46.34;98218.19;6222137;23;20028;-39
2022/03/07 08:33:32;;;;;;;12.60;7.60;;;1.00;50.90;;;1.24;46.85;98220.53;6251717;23;20016;-39
2022/03/07 08:35:59;;;;;;;13.70;8.57;;;1.00;50.70;;;1.28;46.25;98222.03;6248883;23;20219;-39
2022/03/07 08:38:28;;;;;;;12.83;9.20;;;1.00;50.70;;;1.29;46.96;98221.13;6248904;23;20175;-39
2022/03/07 08:40:55;;;;;;;13.67;7.37;;;1.00;50.60;;;1.34;46.46;98216.47;6249776;23;20016;-39
2022/03/07 08:43:23;;;;;;;13.70;8.30;;;1.10;50.70;;;1.41;46.43;98219.56;6251231;23;20020;-39
2022/03/07 08:45:51;;;;;;;13.40;7.90;;;1.10;50.40;;;1.46;46.24;98226.25;6251065;23;20016;-39
2022/03/07 08:48:24;;;;;;;12.57;7.87;;;1.20;50.20;;;1.50;46.32;98227.75;6250632;23;20024;-39
2022/03/07 08:50:53;;;;;;;12.67;8.40;;;1.20;49.80;;;1.54;46.25;98224.00;6260953;23;20012;-39
2022/03/07 08:53:21;;;;;;;14.47;7.63;;;1.30;49.60;;;1.59;45.84;98234.25;6249902;23;20083;-39
2022/03/07 08:55:49;;;;;;;13.90;8.13;;;1.30;49.10;;;1.64;45.68;98229.53;6254510;23;20026;-39
2022/03/07 08:58:37;;;;;;;13.20;8.00;;;1.40;49.20;;;1.69;45.36;98230.13;6246084;23;20024;-39
2022/03/07 09:01:05;;;;;;;13.17;7.83;;;1.40;49.00;;;1.73;45.54;98233.41;6233578;23;20027;-39
2022/03/07 09:03:34;;;;;;;11.83;7.77;;;1.40;48.70;;;1.70;45.05;98236.22;6235588;23;20034;-39
2022/03/07 09:06:03;;;;;;;11.83;7.50;;;1.50;48.10;;;1.77;44.81;98225.25;6236159;23;20030;-39
2022/03/07 09:08:31;;;;;;;12.13;7.53;;;1.60;48.00;;;1.89;44.91;98233.34;6235047;23;20024;-39
2022/03/07 09:10:59;;;;;;;13.73;8.10;;;1.80;47.80;;;1.99;45.27;98231.00;6235444;23;20043;-39
2022/03/07 09:13:27;;;;;;;11.03;7.73;;;1.80;47.40;;;2.06;44.95;98229.69;6233762;23;20021;-39
2022/03/07 09:15:55;;;;;;;11.27;7.40;;;1.90;47.20;;;2.10;44.65;98245.16;6234689;23;20340;-39
2022/03/07 09:18:25;;;;;;;12.30;7.80;;;2.00;47.30;;;2.18;44.52;98236.81;6232599;23;20024;-39
2022/03/07 09:20:54;;;;;;;14.37;8.00;;;2.10;46.80;;;2.22;44.65;98232.22;6235395;23;20012;-39
2022/03/07 09:23:23;;;;;;;12.80;7.70;;;2.10;46.50;;;2.25;44.44;98246.03;6235268;23;20019;-39
2022/03/07 09:25:50;;;;;;;14.50;8.03;;;2.10;46.80;;;2.25;43.98;98240.75;6236301;23;20027;-39
2022/03/07 09:28:18;;;;;;;11.83;7.53;;;2.00;46.20;;;2.28;43.97;98248.44;6236272;23;20016;-39
2022/03/07 09:30:46;;;;;;;15.63;8.00;;;2.10;46.70;;;2.33;44.27;98245.56;6236359;23;20318;-39
2022/03/07 09:33:15;;;;;;;11.00;7.17;;;2.10;46.80;;;2.31;44.15;98247.44;6234731;23;20024;-39
2022/03/07 09:35:42;;;;;;;12.43;8.53;;;2.10;46.00;;;2.35;43.97;98247.13;6236082;23;20551;-39
2022/03/07 09:39:09;;;;;;;12.67;7.93;;;2.10;46.60;;;2.40;43.17;98249.47;6234763;23;20460;-39
2022/03/07 09:41:42;;;;;;;11.33;7.57;;;2.20;45.40;;;2.44;43.56;98250.97;6237491;23;20020;-39
2022/03/07 09:44:10;;;;;;;10.57;7.20;;;2.30;46.10;;;2.51;43.91;98251.44;6220697;23;20210;-39
2022/03/07 09:46:38;;;;;;;12.97;8.20;;;2.30;46.40;;;2.59;44.14;98256.22;6234908;23;20023;-38
2022/03/07 09:49:06;;;;;;;12.70;7.93;;;2.40;46.40;;;2.62;43.62;98251.63;6234614;23;20020;-38
2022/03/07 09:51:34;;;;;;;11.33;7.87;;;2.40;46.60;;;2.64;43.65;98254.16;6236124;23;20038;-38
2022/03/07 09:54:02;;;;;;;11.43;7.80;;;2.40;46.40;;;2.65;43.60;98256.66;6236241;23;20403;-38
2022/03/07 09:56:31;;;;;;;10.87;7.73;;;2.40;46.20;;;2.65;43.34;98247.94;6236691;23;20030;-38
2022/03/07 09:58:59;;;;;;;12.77;7.73;;;2.40;46.00;;;2.66;42.89;98254.91;6237300;23;20034;-38
2022/03/07 10:01:27;;;;;;;13.77;7.70;;;2.40;45.90;;;2.62;43.35;98246.34;6235801;23;20022;-38
2022/03/07 10:04:10;;;;;;;11.80;7.77;;;2.40;45.40;;;2.62;42.73;98250.75;6235067;23;20237;-38
2022/03/07 10:06:48;;;;;;;10.90;8.10;;;2.30;44.30;;;2.60;42.66;98257.88;6234846;23;20020;-38
2022/03/07 10:09:25;;;;;;;10.97;8.40;;;2.30;45.10;;;2.56;42.67;98249.38;6245221;23;20016;-38
2022/03/07 10:12:00;;;;;;;13.70;8.17;;;2.30;44.60;;;2.49;42.70;98253.31;6210676;23;20028;-38
2022/03/07 10:14:47;;;;;;;11.50;7.47;;;2.20;44.70;;;2.50;42.92;98255.84;6234815;23;20020;-39
2022/03/07 10:17:31;;;;;;;10.87;7.80;;;2.30;44.90;;;2.59;42.67;98251.78;6245879;23;20027;-38
2022/03/07 10:20:04;;;;;;;;;;;2.40;45.10;;;2.65;42.77;98264.56;6245394;23;20020;-39
2022/03/07 10:22:45;;;;;;;14.60;8.00;;;2.50;44.30;;;2.74;42.70;98261.34;6246379;23;19925;-38
2022/03/07 10:25:14;;;;;;;12.87;8.80;;;2.50;44.20;;;2.69;42.05;98259.94;6235853;23;20027;-39
2022/03/07 10:27:48;;;;;;;13.70;7.77;;;2.60;43.90;;;2.78;42.65;98255.91;6235139;23;20012;-38
2022/03/07 10:30:29;;;;;;;13.97;8.50;;;2.70;44.70;;;2.85;41.46;98262.44;6235031;23;20016;-38
2022/03/07 10:33:09;;;;;;;14.43;7.77;;;2.80;44.10;;;2.90;42.36;98258.56;6245617;23;20020;-38
2022/03/07 10:35:43;;;;;;;11.90;7.43;;;2.90;44.20;;;3.01;41.27;98257.06;6219906;23;20217;-38
2022/03/07 10:38:17;;;;;;;13.07;8.70;;;3.00;43.70;;;3.02;40.75;98249.06;6232668;23;20046;-38